createdAt,value
2022-08-17T00:01:51.285Z,2.50
2022-08-17T00:04:22.834Z,2.20
2022-08-17T00:06:50.660Z,2.70
2022-08-17T00:09:18.718Z,2.28
2022-08-17T00:12:03.955Z,2.40
2022-08-17T00:14:36.573Z,2.47
2022-08-17T00:17:05.161Z,2.30
2022-08-17T00:19:33.008Z,2.30
2022-08-17T00:22:35.151Z,2.67
2022-08-17T00:24:52.225Z,2.45
2022-08-17T00:27:19.491Z,2.55
2022-08-17T00:29:46.942Z,2.63
2022-08-17T00:33:11.985Z,2.35
2022-08-17T00:35:05.913Z,2.70
2022-08-17T00:37:33.030Z,2.45
2022-08-17T00:40:00.206Z,2.70
2022-08-17T00:42:30.974Z,2.40
2022-08-17T00:44:58.807Z,2.80
2022-08-17T00:47:26.105Z,2.60
2022-08-17T00:49:54.066Z,3.00
2022-08-17T00:52:25.003Z,2.40
2022-08-17T00:54:54.471Z,2.70
2022-08-17T00:57:24.706Z,2.53
2022-08-17T01:00:03.180Z,2.70
2022-08-17T01:02:42.253Z,2.60
2022-08-17T01:05:19.842Z,2.58
2022-08-17T01:07:51.128Z,2.72
2022-08-17T01:11:00.423Z,2.33
2022-08-17T01:13:11.291Z,2.92
2022-08-17T01:15:46.130Z,2.50
2022-08-17T01:18:17.267Z,2.40
2022-08-17T01:20:49.469Z,2.50
2022-08-17T01:23:23.398Z,2.33
2022-08-17T01:25:53.072Z,2.40
2022-08-17T01:28:52.418Z,2.60
2022-08-17T01:31:15.022Z,2.30
2022-08-17T01:33:42.320Z,2.72
2022-08-17T01:36:10.191Z,2.20
2022-08-17T01:38:38.559Z,2.30
2022-08-17T01:41:12.644Z,2.67
2022-08-17T01:43:51.410Z,2.63
2022-08-17T01:46:27.203Z,2.53
2022-08-17T01:48:57.685Z,2.78
2022-08-17T01:51:32.191Z,2.78
2022-08-17T01:54:06.382Z,2.72
2022-08-17T01:56:36.909Z,2.70
2022-08-17T01:59:04.592Z,2.67
2022-08-17T02:01:34.690Z,2.47
2022-08-17T02:04:02.998Z,2.60
2022-08-17T02:06:52.512Z,2.58
2022-08-17T02:09:25.666Z,2.70
2022-08-17T02:11:57.974Z,2.78
2022-08-17T02:14:28.138Z,2.72
2022-08-17T02:16:56.217Z,3.05
2022-08-17T02:19:23.322Z,3.72
2022-08-17T02:21:52.485Z,3.83
2022-08-17T02:25:00.159Z,4.57
2022-08-17T02:27:12.260Z,5.97
2022-08-17T02:29:41.567Z,4.03
2022-08-17T02:32:27.175Z,3.50
2022-08-17T02:34:59.387Z,3.00
2022-08-17T02:37:28.070Z,3.22
2022-08-17T02:39:58.830Z,3.13
2022-08-17T02:42:35.608Z,3.10
2022-08-17T02:45:06.063Z,3.40
2022-08-17T02:47:33.809Z,3.33
2022-08-17T02:50:00.776Z,3.10
2022-08-17T02:52:53.270Z,3.30
2022-08-17T02:55:30.693Z,2.78
2022-08-17T02:57:57.903Z,3.20
2022-08-17T03:00:34.003Z,3.20
2022-08-17T03:03:05.686Z,2.85
2022-08-17T03:05:35.247Z,2.70
2022-08-17T03:08:03.209Z,2.97
2022-08-17T03:10:30.210Z,3.03
2022-08-17T03:12:57.204Z,3.28
2022-08-17T03:15:28.936Z,3.22
2022-08-17T03:17:56.850Z,2.83
2022-08-17T03:20:25.333Z,3.28
2022-08-17T03:22:55.712Z,3.40
2022-08-17T03:25:32.760Z,2.70
2022-08-17T03:28:01.833Z,3.35
2022-08-17T03:30:29.664Z,3.25
2022-08-17T03:33:03.992Z,3.20
2022-08-17T03:35:36.692Z,3.45
2022-08-17T03:38:05.200Z,3.17
2022-08-17T03:40:36.970Z,3.42
2022-08-17T03:43:23.445Z,3.45
2022-08-17T03:46:19.296Z,3.35
2022-08-17T03:49:15.466Z,3.08
2022-08-17T03:52:03.474Z,3.20
2022-08-17T03:54:49.020Z,3.60
2022-08-17T03:57:16.921Z,3.10
2022-08-17T03:59:47.736Z,3.33
2022-08-17T04:02:22.426Z,3.20
2022-08-17T04:04:54.065Z,3.22
2022-08-17T04:07:27.647Z,3.40
2022-08-17T04:09:55.162Z,3.40
2022-08-17T04:12:23.329Z,3.42
2022-08-17T04:14:52.731Z,3.22
2022-08-17T04:17:27.402Z,3.45
2022-08-17T04:19:57.021Z,3.40
2022-08-17T04:22:32.508Z,3.20
2022-08-17T04:25:16.856Z,3.38
2022-08-17T04:27:44.197Z,3.42
2022-08-17T04:30:14.832Z,3.67
2022-08-17T04:33:05.915Z,3.50
2022-08-17T04:35:41.279Z,3.35
2022-08-17T04:38:12.407Z,3.40
2022-08-17T04:41:01.114Z,3.30
2022-08-17T04:43:29.333Z,3.30
2022-08-17T04:46:06.464Z,2.78
2022-08-17T04:48:40.374Z,3.40
2022-08-17T04:51:11.248Z,3.63
2022-08-17T04:53:44.419Z,3.40
2022-08-17T04:56:16.954Z,3.60
2022-08-17T04:58:51.122Z,3.25
2022-08-17T05:01:24.822Z,3.70
2022-08-17T05:03:56.304Z,3.50
2022-08-17T05:06:26.782Z,3.85
2022-08-17T05:08:54.842Z,3.47
2022-08-17T05:11:24.144Z,3.20
2022-08-17T05:13:51.719Z,3.22
2022-08-17T05:16:20.611Z,3.25
2022-08-17T05:18:48.219Z,3.30
2022-08-17T05:21:15.943Z,3.20
2022-08-17T05:23:43.570Z,3.05
2022-08-17T05:26:25.738Z,3.60
2022-08-17T05:29:00.551Z,3.38
2022-08-17T05:34:02.659Z,3.42
2022-08-17T05:36:41.902Z,3.28
2022-08-17T05:39:16.215Z,3.03
2022-08-17T05:41:48.404Z,3.22
2022-08-17T05:44:16.775Z,2.60
2022-08-17T05:46:51.059Z,3.10
2022-08-17T05:49:25.496Z,3.20
2022-08-17T05:52:21.017Z,3.27
2022-08-17T05:54:54.571Z,2.90
2022-08-17T05:57:29.323Z,3.07
2022-08-17T06:00:20.951Z,2.88
2022-08-17T06:02:53.838Z,3.08
2022-08-17T06:05:33.290Z,3.00
2022-08-17T06:08:08.864Z,2.78
2022-08-17T06:10:59.325Z,2.78
2022-08-17T06:13:59.089Z,3.10
2022-08-17T06:16:36.271Z,2.72
2022-08-17T06:19:21.279Z,3.05
2022-08-17T06:21:52.641Z,3.10
2022-08-17T06:24:34.356Z,3.40
2022-08-17T06:27:33.655Z,2.83
2022-08-17T06:30:21.964Z,2.85
2022-08-17T06:32:52.518Z,2.80
2022-08-17T06:35:32.023Z,2.70
2022-08-17T06:38:38.110Z,3.05
2022-08-17T06:41:22.593Z,3.03
2022-08-17T06:44:49.957Z,3.38
2022-08-17T06:47:30.024Z,2.70
2022-08-17T06:50:40.397Z,2.60
2022-08-17T06:53:29.836Z,2.47
2022-08-17T06:56:20.967Z,2.30
2022-08-17T06:58:50.892Z,2.70
2022-08-17T07:01:25.262Z,2.60
2022-08-17T07:04:12.358Z,2.60
2022-08-17T07:06:51.405Z,2.67
2022-08-17T07:09:34.116Z,2.78
2022-08-17T07:12:16.449Z,2.30
2022-08-17T07:14:46.228Z,2.40
2022-08-17T07:17:18.463Z,2.28
2022-08-17T07:19:48.106Z,2.13
2022-08-17T07:22:30.565Z,2.13
2022-08-17T07:25:20.867Z,2.17
2022-08-17T07:27:54.502Z,2.15
2022-08-17T07:30:31.271Z,2.20
2022-08-17T07:33:17.882Z,1.95
2022-08-17T07:35:50.167Z,2.30
2022-08-17T07:38:26.876Z,2.40
2022-08-17T07:40:57.902Z,2.67
2022-08-17T07:43:31.181Z,2.70
2022-08-17T07:46:23.138Z,2.67
2022-08-17T07:48:53.786Z,2.20
2022-08-17T07:51:32.277Z,2.03
2022-08-17T07:54:23.230Z,2.65
2022-08-17T07:57:02.010Z,2.30
2022-08-17T07:59:35.899Z,2.60
2022-08-17T08:05:01.107Z,3.13
2022-08-17T08:07:38.463Z,2.60
2022-08-17T08:10:11.101Z,2.33
2022-08-17T08:12:45.301Z,2.50
2022-08-17T08:15:19.160Z,2.70
2022-08-17T08:17:59.381Z,3.10
2022-08-17T08:21:04.194Z,2.60
2022-08-17T08:23:37.282Z,2.65
2022-08-17T08:26:26.468Z,2.70
2022-08-17T08:29:18.759Z,2.50
2022-08-17T08:31:58.903Z,2.42
2022-08-17T08:35:03.755Z,3.38
2022-08-17T08:37:40.536Z,2.42
2022-08-17T08:40:13.633Z,3.03
2022-08-17T08:42:56.721Z,3.17
2022-08-17T08:45:33.033Z,2.80
2022-08-17T08:48:46.043Z,2.90
2022-08-17T08:51:16.497Z,2.95
2022-08-17T08:54:09.509Z,3.15
2022-08-17T08:57:33.487Z,3.15
2022-08-17T09:00:35.940Z,3.10
2022-08-17T09:03:08.486Z,3.30
2022-08-17T09:06:06.831Z,3.07
2022-08-17T09:09:18.794Z,3.05
2022-08-17T09:12:17.625Z,3.05
2022-08-17T09:15:12.815Z,3.22
2022-08-17T09:18:08.601Z,3.10
2022-08-17T09:20:54.000Z,2.90
2022-08-17T09:23:37.282Z,2.83
2022-08-17T09:26:23.827Z,2.75
2022-08-17T09:29:01.592Z,3.00
2022-08-17T09:31:35.601Z,2.83
2022-08-17T09:34:33.050Z,2.60
2022-08-17T09:37:23.245Z,2.65
2022-08-17T09:40:05.625Z,2.70
2022-08-17T09:42:50.087Z,2.90
2022-08-17T09:45:23.152Z,2.60
2022-08-17T09:47:53.955Z,2.58
2022-08-17T09:51:03.462Z,2.67
2022-08-17T09:53:15.617Z,2.78
2022-08-17T09:55:45.783Z,2.67
2022-08-17T09:58:30.697Z,2.40
2022-08-17T10:01:08.739Z,2.70
2022-08-17T10:04:03.657Z,2.00
2022-08-17T10:06:37.934Z,2.20
2022-08-17T10:09:40.280Z,1.83
2022-08-17T10:12:17.078Z,2.60
2022-08-17T10:14:55.141Z,2.53
2022-08-17T10:17:35.264Z,3.08
2022-08-17T10:20:29.803Z,2.88
2022-08-17T10:23:21.690Z,2.63
2022-08-17T10:26:17.069Z,2.28
2022-08-17T10:28:53.268Z,2.15
2022-08-17T10:31:36.262Z,2.47
2022-08-17T10:34:12.413Z,2.25
2022-08-17T10:36:46.257Z,2.78
2022-08-17T10:39:36.287Z,2.70
2022-08-17T10:42:37.436Z,2.40
2022-08-17T10:45:26.397Z,2.30
2022-08-17T10:48:04.747Z,2.47
2022-08-17T10:50:44.439Z,2.10
2022-08-17T10:53:33.799Z,2.10
2022-08-17T10:56:13.242Z,2.63
2022-08-17T10:58:50.777Z,2.33
2022-08-17T11:01:18.460Z,2.47
2022-08-17T11:03:56.844Z,2.15
2022-08-17T11:06:32.903Z,2.20
2022-08-17T11:09:21.532Z,2.50
2022-08-17T11:12:37.665Z,2.90
2022-08-17T11:15:44.029Z,3.03
2022-08-17T11:18:30.671Z,2.53
2022-08-17T11:21:21.985Z,2.58
2022-08-17T11:24:01.573Z,2.50
2022-08-17T11:26:32.104Z,2.30
2022-08-17T11:29:09.078Z,2.30
2022-08-17T11:31:46.627Z,2.67
2022-08-17T11:34:15.937Z,2.00
2022-08-17T11:37:06.927Z,2.40
2022-08-17T11:40:06.429Z,2.53
2022-08-17T11:42:45.064Z,2.78
2022-08-17T11:45:34.144Z,2.50
2022-08-17T11:48:40.545Z,2.00
2022-08-17T11:51:35.609Z,2.15
2022-08-17T11:54:31.586Z,2.40
2022-08-17T11:56:59.045Z,2.60
2022-08-17T11:59:36.472Z,2.30
2022-08-17T12:02:29.864Z,2.30
2022-08-17T12:05:17.103Z,2.17
2022-08-17T12:08:15.419Z,2.22
2022-08-17T12:10:54.581Z,2.00
2022-08-17T12:13:30.523Z,2.10
2022-08-17T12:16:03.561Z,2.47
2022-08-17T12:18:39.134Z,1.95
2022-08-17T12:21:23.419Z,2.25
2022-08-17T12:24:06.605Z,2.47
2022-08-17T12:26:36.907Z,2.22
2022-08-17T12:29:18.301Z,2.72
2022-08-17T12:32:03.818Z,2.33
2022-08-17T12:34:42.949Z,2.10
2022-08-17T12:37:27.866Z,2.00
2022-08-17T12:40:04.183Z,2.33
2022-08-17T12:42:37.307Z,2.20
2022-08-17T12:45:07.538Z,2.63
2022-08-17T12:47:38.079Z,2.85
2022-08-17T12:50:28.955Z,2.50
2022-08-17T12:53:01.685Z,2.30
2022-08-17T12:55:36.786Z,2.72
2022-08-17T12:58:04.413Z,2.20
2022-08-17T13:00:36.467Z,2.60
2022-08-17T13:03:19.404Z,2.92
2022-08-17T13:05:52.730Z,2.10
2022-08-17T13:08:24.650Z,2.20
2022-08-17T13:11:01.566Z,2.33
2022-08-17T13:13:34.894Z,2.20
2022-08-17T13:16:03.670Z,2.65
2022-08-17T13:18:55.287Z,2.30
2022-08-17T13:21:22.961Z,3.85
2022-08-17T13:24:01.920Z,2.22
2022-08-17T13:26:48.689Z,2.35
2022-08-17T13:29:39.283Z,2.13
2022-08-17T13:32:13.254Z,2.50
2022-08-17T13:34:51.385Z,2.28
2022-08-17T13:37:36.656Z,2.10
2022-08-17T13:40:29.161Z,2.20
2022-08-17T13:42:57.723Z,2.70
2022-08-17T13:45:39.132Z,1.90
2022-08-17T13:48:12.507Z,2.55
2022-08-17T13:50:55.428Z,2.13
2022-08-17T13:53:32.784Z,2.45
2022-08-17T13:56:34.933Z,2.50
2022-08-17T13:59:12.368Z,2.60
2022-08-17T14:01:51.121Z,2.38
2022-08-17T14:04:24.925Z,2.08
2022-08-17T14:07:03.708Z,2.40
2022-08-17T14:09:37.764Z,2.17
2022-08-17T14:12:17.050Z,2.60
2022-08-17T14:14:49.650Z,2.10
2022-08-17T14:17:23.075Z,2.42
2022-08-17T14:19:51.350Z,2.10
2022-08-17T14:22:32.116Z,2.05
2022-08-17T14:25:01.828Z,2.50
2022-08-17T14:27:32.014Z,2.20
2022-08-17T14:29:59.538Z,2.15
2022-08-17T14:32:30.209Z,2.38
2022-08-17T14:35:00.067Z,2.75
2022-08-17T14:37:28.688Z,2.58
2022-08-17T14:40:01.089Z,2.15
2022-08-17T14:42:32.505Z,2.63
2022-08-17T14:45:06.200Z,2.33
2022-08-17T14:47:55.677Z,2.10
2022-08-17T14:50:22.729Z,2.35
2022-08-17T14:52:50.972Z,2.00
2022-08-17T14:55:20.884Z,2.28
2022-08-17T14:57:48.590Z,2.30
2022-08-17T15:00:16.661Z,1.90
2022-08-17T15:02:53.846Z,2.38
2022-08-17T15:05:31.774Z,2.42
2022-08-17T15:08:02.650Z,2.65
2022-08-17T15:10:30.397Z,2.13
2022-08-17T15:12:57.965Z,2.10
2022-08-17T15:15:25.890Z,2.10
2022-08-17T15:17:53.330Z,2.30
2022-08-17T15:20:23.922Z,2.30
2022-08-17T15:22:55.559Z,2.08
2022-08-17T15:25:25.382Z,2.20
2022-08-17T15:27:52.936Z,2.33
2022-08-17T15:30:20.254Z,2.38
2022-08-17T15:32:54.557Z,2.40
2022-08-17T15:35:27.271Z,2.35
2022-08-17T15:38:06.511Z,2.47
2022-08-17T15:40:41.217Z,2.35
2022-08-17T15:43:13.521Z,2.55
2022-08-17T15:45:43.258Z,2.13
2022-08-17T15:48:10.455Z,2.20
2022-08-17T15:50:38.023Z,2.45
2022-08-17T15:53:07.433Z,2.38
2022-08-17T15:55:38.415Z,2.17
2022-08-17T15:58:05.948Z,2.20
2022-08-17T16:00:35.430Z,2.15
2022-08-17T16:04:01.182Z,2.10
2022-08-17T16:06:09.877Z,2.95
2022-08-17T16:08:38.670Z,2.10
2022-08-17T16:11:05.818Z,2.22
2022-08-17T16:13:33.055Z,2.22
2022-08-17T16:16:00.043Z,2.20
2022-08-17T16:18:31.127Z,2.35
2022-08-17T16:21:22.965Z,2.38
2022-08-17T16:23:52.109Z,2.30
2022-08-17T16:26:22.955Z,2.20
2022-08-17T16:28:51.086Z,2.28
2022-08-17T16:31:18.075Z,2.40
2022-08-17T16:34:16.284Z,2.13
2022-08-17T16:36:32.579Z,2.55
2022-08-17T16:39:00.823Z,2.33
2022-08-17T16:41:46.140Z,2.72
2022-08-17T16:44:15.862Z,3.10
2022-08-17T16:46:45.542Z,2.95
2022-08-17T16:49:36.119Z,2.58
2022-08-17T16:52:03.445Z,2.80
2022-08-17T16:54:30.409Z,2.50
2022-08-17T16:56:59.539Z,2.35
2022-08-17T16:59:39.414Z,2.72
2022-08-17T17:02:15.504Z,2.80
2022-08-17T17:04:54.569Z,2.80
2022-08-17T17:07:50.968Z,2.75
2022-08-17T17:10:36.184Z,2.70
2022-08-17T17:13:09.696Z,2.70
2022-08-17T17:15:52.437Z,3.03
2022-08-17T17:18:23.239Z,2.85
2022-08-17T17:20:57.105Z,3.00
2022-08-17T17:23:56.472Z,2.85
2022-08-17T17:26:39.035Z,2.90
2022-08-17T17:29:24.127Z,2.90
2022-08-17T17:32:09.685Z,3.08
2022-08-17T17:34:42.092Z,3.20
2022-08-17T17:37:20.375Z,3.03
2022-08-17T17:39:53.840Z,3.55
2022-08-17T17:42:28.385Z,3.90
2022-08-17T17:45:12.192Z,3.58
2022-08-17T17:47:39.343Z,3.67
2022-08-17T17:50:09.130Z,3.80
2022-08-17T17:52:42.386Z,3.45
2022-08-17T17:55:27.738Z,4.13
2022-08-17T18:01:18.482Z,3.38
2022-08-17T18:04:04.658Z,3.13
2022-08-17T18:06:46.572Z,3.53
2022-08-17T18:09:34.002Z,3.10
2022-08-17T18:12:10.364Z,3.30
2022-08-17T18:15:01.639Z,3.70
2022-08-17T18:17:29.850Z,3.90
2022-08-17T18:19:57.107Z,3.90
2022-08-17T18:22:24.990Z,3.50
2022-08-17T18:24:56.448Z,3.22
2022-08-17T18:27:37.310Z,3.92
2022-08-17T18:30:13.652Z,3.30
2022-08-17T18:32:43.725Z,3.80
2022-08-17T18:35:10.944Z,3.80
2022-08-17T18:37:43.577Z,3.88
2022-08-17T18:40:16.513Z,3.80
2022-08-17T18:43:23.347Z,3.30
2022-08-17T18:45:53.740Z,3.40
2022-08-17T18:48:29.443Z,3.63
2022-08-17T18:51:04.930Z,3.90
2022-08-17T18:53:35.122Z,3.50
2022-08-17T18:56:23.398Z,4.07
2022-08-17T18:58:58.543Z,3.53
2022-08-17T19:01:41.957Z,4.07
2022-08-17T19:04:34.139Z,3.50
2022-08-17T19:07:10.934Z,3.47
2022-08-17T19:09:48.714Z,3.67
2022-08-17T19:12:38.295Z,3.85
2022-08-17T19:15:09.415Z,3.33
2022-08-17T19:18:02.759Z,3.20
2022-08-17T19:20:35.906Z,3.53
2022-08-17T19:23:14.157Z,3.08
2022-08-17T19:25:48.580Z,4.20
2022-08-17T19:28:27.920Z,3.60
2022-08-17T19:30:59.575Z,3.67
2022-08-17T19:33:27.336Z,3.60
2022-08-17T19:36:27.296Z,3.65
2022-08-17T19:39:06.008Z,3.20
2022-08-17T19:41:50.014Z,3.45
2022-08-17T19:44:46.538Z,3.40
2022-08-17T19:47:30.438Z,3.63
2022-08-17T19:50:27.393Z,3.10
2022-08-17T19:53:36.723Z,3.80
2022-08-17T19:56:24.357Z,3.55
2022-08-17T19:59:18.949Z,3.58
2022-08-17T20:01:53.969Z,3.70
2022-08-17T20:04:33.109Z,3.63
2022-08-17T20:07:08.214Z,3.95
2022-08-17T20:09:43.763Z,3.78
2022-08-17T20:12:17.603Z,3.80
2022-08-17T20:15:04.869Z,3.60
2022-08-17T20:17:37.367Z,3.70
2022-08-17T20:20:54.762Z,3.15
2022-08-17T20:23:31.282Z,3.75
2022-08-17T20:26:07.564Z,4.03
2022-08-17T20:28:39.016Z,4.22
2022-08-17T20:31:45.574Z,3.92
2022-08-17T20:34:37.090Z,3.92
2022-08-17T20:37:25.070Z,3.90
2022-08-17T20:39:52.794Z,3.85
2022-08-17T20:42:19.797Z,4.10
2022-08-17T20:44:58.072Z,3.97
2022-08-17T20:48:00.863Z,3.88
2022-08-17T20:50:47.092Z,4.03
2022-08-17T20:53:55.073Z,3.67
2022-08-17T20:56:43.890Z,3.72
2022-08-17T20:59:26.143Z,4.00
2022-08-17T21:02:08.946Z,3.78
2022-08-17T21:04:52.840Z,3.17
2022-08-17T21:07:42.579Z,4.00
2022-08-17T21:10:27.711Z,3.92
2022-08-17T21:13:28.307Z,4.07
2022-08-17T21:16:10.283Z,3.90
2022-08-17T21:19:00.715Z,4.50
2022-08-17T21:21:37.719Z,4.22
2022-08-17T21:24:22.243Z,4.47
2022-08-17T21:27:25.026Z,4.07
2022-08-17T21:30:30.525Z,3.63
2022-08-17T21:33:25.570Z,3.72
2022-08-17T21:36:16.105Z,3.45
2022-08-17T21:38:57.004Z,3.80
2022-08-17T21:41:27.433Z,3.72
2022-08-17T21:44:02.869Z,4.22
2022-08-17T21:49:13.603Z,3.88
2022-08-17T21:51:47.315Z,4.30
2022-08-17T21:54:35.802Z,4.38
2022-08-17T21:57:06.072Z,4.13
2022-08-17T21:59:36.056Z,3.80
2022-08-17T22:02:05.770Z,3.80
2022-08-17T22:04:37.171Z,3.88
2022-08-17T22:07:11.385Z,4.00
2022-08-17T22:09:43.285Z,3.92
2022-08-17T22:12:18.284Z,4.30
2022-08-17T22:15:00.685Z,3.47
2022-08-17T22:17:36.979Z,3.85
2022-08-17T22:20:09.538Z,3.97
2022-08-17T22:23:18.292Z,3.67
2022-08-17T22:26:06.126Z,3.83
2022-08-17T22:31:58.519Z,3.92
2022-08-17T22:34:35.696Z,4.95
2022-08-17T22:37:28.383Z,4.00
2022-08-17T22:39:59.471Z,3.90
2022-08-17T22:42:28.620Z,4.47
2022-08-17T22:44:55.666Z,4.22
2022-08-17T22:47:40.965Z,4.43
2022-08-17T22:50:37.447Z,4.13
2022-08-17T22:53:34.355Z,4.40
2022-08-17T22:56:19.964Z,4.13
2022-08-17T22:59:13.314Z,4.00
2022-08-17T23:01:43.560Z,3.72
2022-08-17T23:04:29.323Z,3.97
2022-08-17T23:06:56.302Z,3.85
2022-08-17T23:09:23.665Z,4.10
2022-08-17T23:11:58.717Z,4.32
2022-08-17T23:16:59.443Z,4.20
2022-08-17T23:19:27.682Z,4.38
2022-08-17T23:21:56.379Z,3.90
2022-08-17T23:24:27.115Z,3.53
2022-08-17T23:26:57.350Z,3.63
2022-08-17T23:29:29.532Z,3.47
2022-08-17T23:31:59.988Z,3.70
2022-08-17T23:34:28.680Z,3.83
2022-08-17T23:36:58.078Z,4.20
2022-08-17T23:39:28.404Z,3.97
2022-08-17T23:41:58.410Z,3.80
2022-08-17T23:44:26.257Z,3.58
2022-08-17T23:46:56.504Z,4.22
2022-08-17T23:49:25.119Z,4.35
2022-08-17T23:51:54.850Z,3.80
2022-08-17T23:54:26.606Z,3.50
2022-08-17T23:56:53.940Z,4.15
2022-08-17T23:59:23.140Z,3.80
